createdAt,value
2023-02-13T00:01:27.436Z,66.15
2023-02-13T00:03:55.940Z,65.93
2023-02-13T00:06:25.802Z,65.83
2023-02-13T00:08:54.264Z,66.39
2023-02-13T00:11:22.766Z,66.70
2023-02-13T00:13:51.171Z,66.31
2023-02-13T00:16:20.550Z,66.74
2023-02-13T00:18:48.977Z,66.64
2023-02-13T00:21:17.426Z,66.46
2023-02-13T00:23:48.210Z,66.44
2023-02-13T00:26:18.358Z,66.03
2023-02-13T00:28:48.520Z,66.30
2023-02-13T00:31:19.016Z,66.46
2023-02-13T00:33:47.568Z,66.46
2023-02-13T00:36:18.234Z,66.42
2023-02-13T00:38:48.651Z,66.00
2023-02-13T00:41:17.937Z,66.39
2023-02-13T00:43:46.955Z,66.74
2023-02-13T00:46:15.943Z,66.77
2023-02-13T00:48:45.578Z,66.22
2023-02-13T00:51:14.201Z,66.76
2023-02-13T00:53:42.628Z,66.72
2023-02-13T00:56:12.516Z,66.32
2023-02-13T00:58:40.977Z,67.08
2023-02-13T01:01:09.484Z,67.13
2023-02-13T01:03:38.103Z,67.38
2023-02-13T01:06:07.429Z,67.02
2023-02-13T01:08:35.947Z,67.42
2023-02-13T01:11:04.395Z,67.52
2023-02-13T01:13:34.496Z,67.76
2023-02-13T01:16:02.963Z,67.51
2023-02-13T01:18:31.635Z,66.79
2023-02-13T01:21:02.175Z,66.65
2023-02-13T01:23:34.217Z,66.47
2023-02-13T01:26:04.569Z,66.95
2023-02-13T01:28:34.808Z,66.74
2023-02-13T01:31:03.769Z,66.65
2023-02-13T01:33:32.334Z,67.27
2023-02-13T01:36:00.767Z,67.24
2023-02-13T01:38:29.693Z,67.09
2023-02-13T01:40:59.277Z,67.25
2023-02-13T01:43:46.777Z,66.83
2023-02-13T01:46:19.189Z,67.43
2023-02-13T01:48:50.819Z,67.45
2023-02-13T01:51:24.562Z,67.75
2023-02-13T01:53:59.897Z,67.68
2023-02-13T01:56:34.613Z,67.89
2023-02-13T01:59:09.794Z,66.76
2023-02-13T02:01:38.722Z,66.45
2023-02-13T02:04:11.669Z,66.31
2023-02-13T02:06:45.570Z,66.28
2023-02-13T02:09:27.096Z,66.31
2023-02-13T02:12:02.024Z,66.05
2023-02-13T02:14:32.582Z,66.48
2023-02-13T02:17:01.015Z,65.98
2023-02-13T02:19:39.500Z,65.88
2023-02-13T02:22:43.172Z,65.56
2023-02-13T02:25:42.806Z,65.47
2023-02-13T02:28:45.057Z,65.67
2023-02-13T02:31:55.396Z,65.24
2023-02-13T02:34:38.624Z,65.53
2023-02-13T02:37:17.812Z,65.62
2023-02-13T02:39:58.367Z,65.46
2023-02-13T02:42:36.412Z,65.70
2023-02-13T02:45:13.305Z,65.94
2023-02-13T02:48:07.677Z,66.02
2023-02-13T02:50:43.079Z,66.68
2023-02-13T02:53:26.600Z,66.52
2023-02-13T02:56:03.212Z,66.96
2023-02-13T02:58:56.892Z,66.88
2023-02-13T03:01:49.354Z,67.18
2023-02-13T03:04:39.237Z,67.26
2023-02-13T03:07:13.210Z,67.39
2023-02-13T03:10:01.689Z,67.01
2023-02-13T03:12:59.761Z,66.99
2023-02-13T03:15:30.162Z,66.90
2023-02-13T03:18:17.872Z,66.68
2023-02-13T03:21:10.540Z,67.00
2023-02-13T03:23:50.866Z,66.54
2023-02-13T03:26:50.757Z,66.56
2023-02-13T03:29:55.293Z,66.14
2023-02-13T03:32:29.442Z,66.31
2023-02-13T03:35:31.122Z,66.06
2023-02-13T03:38:05.703Z,66.42
2023-02-13T03:41:02.877Z,66.04
2023-02-13T03:43:37.057Z,66.44
2023-02-13T03:46:06.898Z,66.66
2023-02-13T03:48:56.436Z,66.88
2023-02-13T03:51:30.749Z,66.72
2023-02-13T03:54:03.499Z,66.58
2023-02-13T03:56:53.451Z,66.67
2023-02-13T03:59:28.069Z,66.47
2023-02-13T04:02:06.247Z,66.61
2023-02-13T04:04:45.185Z,66.20
2023-02-13T04:07:29.787Z,66.65
2023-02-13T04:10:00.696Z,66.68
2023-02-13T04:12:40.382Z,66.56
2023-02-13T04:15:16.010Z,66.75
2023-02-13T04:17:48.472Z,66.79
2023-02-13T04:20:17.394Z,66.91
2023-02-13T04:22:46.363Z,66.94
2023-02-13T04:25:16.854Z,67.08
2023-02-13T04:27:46.759Z,67.33
2023-02-13T04:30:15.998Z,67.41
2023-02-13T04:32:44.553Z,67.64
2023-02-13T04:35:13.879Z,67.70
2023-02-13T04:37:42.364Z,67.46
2023-02-13T04:40:11.822Z,67.25
2023-02-13T04:42:40.294Z,67.40
2023-02-13T04:45:11.468Z,67.35
2023-02-13T04:47:39.917Z,67.43
2023-02-13T04:50:09.533Z,67.10
2023-02-13T04:52:37.982Z,66.83
2023-02-13T04:55:07.009Z,66.69
2023-02-13T04:57:35.444Z,66.81
2023-02-13T05:00:04.114Z,66.59
2023-02-13T05:02:34.195Z,66.51
2023-02-13T05:05:02.625Z,66.72
2023-02-13T05:07:30.984Z,66.93
2023-02-13T05:09:59.395Z,66.69
2023-02-13T05:12:27.950Z,66.41
2023-02-13T05:14:56.306Z,66.28
2023-02-13T05:17:27.265Z,66.23
2023-02-13T05:19:59.345Z,65.97
2023-02-13T05:22:45.280Z,66.28
2023-02-13T05:25:13.673Z,66.39
2023-02-13T05:27:42.143Z,66.39
2023-02-13T05:30:11.598Z,66.53
2023-02-13T05:32:40.282Z,66.72
2023-02-13T05:35:10.737Z,66.78
2023-02-13T05:37:39.161Z,66.76
2023-02-13T05:40:09.047Z,66.66
2023-02-13T05:42:37.404Z,66.56
2023-02-13T05:45:06.642Z,66.76
2023-02-13T05:47:35.090Z,67.11
2023-02-13T05:50:03.605Z,67.04
2023-02-13T05:52:33.448Z,66.81
2023-02-13T05:55:02.143Z,66.65
2023-02-13T05:57:30.576Z,66.91
2023-02-13T05:59:59.770Z,66.99
2023-02-13T06:02:28.175Z,67.09
2023-02-13T06:04:56.719Z,67.47
2023-02-13T06:07:25.103Z,67.23
2023-02-13T06:09:54.933Z,67.18
2023-02-13T06:12:23.336Z,66.87
2023-02-13T06:14:51.695Z,66.94
2023-02-13T06:17:20.158Z,66.77
2023-02-13T06:19:48.522Z,66.79
2023-02-13T06:22:16.891Z,66.36
2023-02-13T06:24:45.224Z,66.41
2023-02-13T06:27:15.052Z,66.47
2023-02-13T06:29:43.461Z,66.82
2023-02-13T06:32:11.807Z,66.82
2023-02-13T06:34:40.329Z,66.77
2023-02-13T06:37:08.758Z,66.86
2023-02-13T06:39:37.069Z,67.22
2023-02-13T06:42:05.743Z,67.30
2023-02-13T06:44:35.491Z,67.31
2023-02-13T06:47:03.947Z,66.96
2023-02-13T06:49:32.652Z,67.21
2023-02-13T06:52:01.105Z,67.27
2023-02-13T06:54:44.993Z,67.42
2023-02-13T06:57:16.075Z,67.58
2023-02-13T06:59:45.807Z,67.39
2023-02-13T07:02:14.722Z,66.81
2023-02-13T07:04:43.214Z,67.75
2023-02-13T07:07:11.625Z,67.72
2023-02-13T07:09:41.243Z,67.79
2023-02-13T07:12:09.869Z,67.86
2023-02-13T07:14:38.186Z,67.81
2023-02-13T07:17:08.073Z,67.86
2023-02-13T07:19:36.501Z,67.73
2023-02-13T07:22:04.991Z,68.00
2023-02-13T07:24:35.504Z,68.16
2023-02-13T07:27:03.975Z,67.96
2023-02-13T07:29:32.477Z,68.09
2023-02-13T07:32:01.023Z,68.02
2023-02-13T07:34:32.272Z,68.16
2023-02-13T07:37:00.743Z,68.05
2023-02-13T07:39:29.292Z,68.01
2023-02-13T07:41:58.516Z,68.39
2023-02-13T07:44:28.120Z,68.42
2023-02-13T07:46:56.650Z,68.59
2023-02-13T07:49:25.063Z,68.51
2023-02-13T07:51:54.878Z,68.71
2023-02-13T07:54:24.250Z,68.10
2023-02-13T07:56:52.745Z,67.64
2023-02-13T07:59:21.136Z,67.13
2023-02-13T08:01:49.682Z,66.48
2023-02-13T08:04:18.403Z,66.31
2023-02-13T08:06:46.949Z,65.18
2023-02-13T08:09:39.670Z,64.52
2023-02-13T08:12:11.649Z,64.78
2023-02-13T08:14:40.151Z,62.94
2023-02-13T08:17:08.564Z,63.17
2023-02-13T08:19:36.979Z,62.89
2023-02-13T08:22:05.487Z,62.08
2023-02-13T08:24:35.622Z,61.83
2023-02-13T08:27:04.147Z,60.90
2023-02-13T08:29:32.968Z,60.25
2023-02-13T08:32:01.455Z,60.62
2023-02-13T08:34:31.006Z,60.49
2023-02-13T08:37:00.412Z,59.70
2023-02-13T08:39:29.128Z,59.10
2023-02-13T08:41:59.295Z,59.47
2023-02-13T08:44:27.946Z,59.54
2023-02-13T08:46:56.933Z,58.59
2023-02-13T08:49:25.267Z,58.99
2023-02-13T08:51:53.687Z,59.33
2023-02-13T08:54:22.135Z,58.48
2023-02-13T08:56:50.483Z,59.12
2023-02-13T08:59:20.267Z,58.64
2023-02-13T09:01:49.060Z,58.83
2023-02-13T09:04:18.513Z,59.26
2023-02-13T09:06:47.063Z,59.19
2023-02-13T09:09:16.260Z,58.65
2023-02-13T09:11:44.665Z,58.77
2023-02-13T09:14:13.050Z,58.63
2023-02-13T09:16:43.873Z,58.93
2023-02-13T09:19:12.255Z,59.03
2023-02-13T09:21:40.669Z,58.58
2023-02-13T09:24:09.715Z,57.58
2023-02-13T09:26:38.244Z,56.74
2023-02-13T09:29:06.729Z,55.75
2023-02-13T09:31:35.340Z,55.13
2023-02-13T09:34:05.399Z,55.80
2023-02-13T09:36:36.378Z,55.13
2023-02-13T09:39:04.936Z,55.10
2023-02-13T09:41:38.276Z,54.29
2023-02-13T09:44:12.836Z,54.35
2023-02-13T09:46:44.328Z,53.28
2023-02-13T09:49:18.347Z,53.59
2023-02-13T09:51:54.270Z,53.25
2023-02-13T09:54:22.887Z,52.98
2023-02-13T09:57:00.750Z,52.07
2023-02-13T09:59:44.076Z,52.05
2023-02-13T10:02:46.522Z,52.19
2023-02-13T10:05:44.294Z,52.05
2023-02-13T10:08:27.025Z,51.23
2023-02-13T10:11:06.943Z,50.88
2023-02-13T10:13:54.794Z,50.70
2023-02-13T10:16:27.129Z,50.19
2023-02-13T10:19:02.339Z,49.63
2023-02-13T10:21:36.758Z,49.52
2023-02-13T10:24:13.181Z,48.71
2023-02-13T10:26:45.853Z,48.45
2023-02-13T10:29:36.371Z,48.66
2023-02-13T10:32:08.540Z,48.38
2023-02-13T10:34:42.712Z,47.30
2023-02-13T10:37:17.334Z,47.45
2023-02-13T10:39:49.664Z,47.43
2023-02-13T10:42:29.004Z,47.54
2023-02-13T10:45:08.935Z,47.68
2023-02-13T10:47:50.539Z,47.04
2023-02-13T10:50:28.113Z,46.99
2023-02-13T10:53:15.275Z,46.34
2023-02-13T10:56:05.056Z,46.33
2023-02-13T10:58:46.686Z,46.74
2023-02-13T11:01:26.694Z,46.05
2023-02-13T11:04:06.586Z,45.78
2023-02-13T11:06:38.017Z,45.59
2023-02-13T11:09:08.678Z,45.75
2023-02-13T11:11:40.522Z,46.67
2023-02-13T11:14:15.778Z,45.35
2023-02-13T11:16:57.283Z,46.20
2023-02-13T11:19:34.148Z,45.65
2023-02-13T11:22:06.989Z,45.62
2023-02-13T11:24:38.071Z,45.93
2023-02-13T11:27:13.036Z,45.88
2023-02-13T11:29:54.090Z,45.70
2023-02-13T11:32:24.908Z,44.99
2023-02-13T11:34:55.014Z,44.79
2023-02-13T11:37:29.025Z,44.32
2023-02-13T11:40:01.607Z,43.24
2023-02-13T11:42:32.902Z,43.18
2023-02-13T11:45:03.883Z,43.00
2023-02-13T11:47:40.740Z,41.90
2023-02-13T11:50:22.634Z,41.97
2023-02-13T11:52:58.143Z,42.59
2023-02-13T11:55:31.222Z,42.80
2023-02-13T11:58:02.181Z,43.18
2023-02-13T12:00:40.227Z,43.09
2023-02-13T12:03:28.130Z,42.19
2023-02-13T12:06:05.792Z,41.26
2023-02-13T12:08:36.314Z,41.77
2023-02-13T12:11:15.912Z,41.37
2023-02-13T12:13:45.437Z,40.85
2023-02-13T12:16:21.467Z,41.00
2023-02-13T12:18:54.599Z,40.28
2023-02-13T12:21:38.457Z,39.41
2023-02-13T12:24:20.887Z,39.20
2023-02-13T12:26:59.966Z,39.12
2023-02-13T12:29:51.138Z,38.95
2023-02-13T12:32:21.085Z,38.74
2023-02-13T12:35:35.057Z,39.28
2023-02-13T12:38:08.627Z,38.90
2023-02-13T12:41:01.630Z,38.42
2023-02-13T12:43:48.976Z,39.02
2023-02-13T12:46:29.981Z,38.26
2023-02-13T12:49:06.057Z,36.85
2023-02-13T12:51:46.633Z,36.92
2023-02-13T12:54:35.133Z,37.33
2023-02-13T12:57:20.549Z,37.45
2023-02-13T13:00:07.318Z,37.14
2023-02-13T13:03:11.205Z,36.36
2023-02-13T13:06:10.866Z,36.30
2023-02-13T13:09:03.209Z,36.14
2023-02-13T13:11:52.185Z,37.25
2023-02-13T13:14:28.887Z,37.69
2023-02-13T13:17:06.495Z,37.64
2023-02-13T13:19:46.883Z,37.64
2023-02-13T13:22:21.571Z,36.33
2023-02-13T13:25:02.241Z,36.18
2023-02-13T13:27:34.627Z,35.82
2023-02-13T13:30:06.394Z,35.12
2023-02-13T13:32:38.017Z,35.87
2023-02-13T13:35:07.896Z,35.30
2023-02-13T13:37:42.970Z,34.86
2023-02-13T13:40:30.575Z,33.98
2023-02-13T13:43:05.284Z,33.96
2023-02-13T13:45:44.300Z,34.53
2023-02-13T13:48:40.623Z,33.88
2023-02-13T13:51:11.004Z,33.48
2023-02-13T13:54:17.956Z,32.96
2023-02-13T13:57:08.827Z,33.98
2023-02-13T14:00:03.511Z,33.90
2023-02-13T14:02:42.354Z,33.52
2023-02-13T14:05:28.208Z,32.99
2023-02-13T14:07:58.535Z,32.82
2023-02-13T14:11:09.708Z,32.63
2023-02-13T14:13:40.256Z,32.81
2023-02-13T14:16:12.690Z,32.46
2023-02-13T14:18:49.237Z,32.36
2023-02-13T14:21:25.918Z,32.07
2023-02-13T14:23:54.612Z,30.87
2023-02-13T14:26:35.939Z,30.94
2023-02-13T14:29:23.861Z,30.19
2023-02-13T14:32:02.069Z,30.69
2023-02-13T14:34:33.195Z,31.53
2023-02-13T14:37:21.129Z,31.81
2023-02-13T14:40:31.673Z,31.68
2023-02-13T14:43:08.507Z,32.48
2023-02-13T14:45:49.037Z,32.10
2023-02-13T14:48:17.600Z,31.32
2023-02-13T14:50:48.800Z,31.13
2023-02-13T14:53:25.335Z,31.21
2023-02-13T14:56:00.410Z,31.66
2023-02-13T14:58:33.812Z,31.68
2023-02-13T15:01:06.275Z,32.18
2023-02-13T15:03:45.424Z,32.67
2023-02-13T15:06:23.768Z,32.66
2023-02-13T15:08:54.602Z,32.59
2023-02-13T15:11:38.884Z,32.85
2023-02-13T15:14:22.067Z,32.53
2023-02-13T15:16:56.154Z,32.76
2023-02-13T15:19:26.149Z,32.86
2023-02-13T15:21:57.931Z,33.29
2023-02-13T15:24:29.956Z,33.57
2023-02-13T15:27:03.007Z,33.96
2023-02-13T15:29:44.209Z,34.07
2023-02-13T15:32:22.208Z,33.91
2023-02-13T15:34:50.809Z,34.14
2023-02-13T15:37:23.857Z,34.21
2023-02-13T15:39:53.826Z,34.29
2023-02-13T15:42:22.907Z,34.77
2023-02-13T15:44:54.407Z,34.89
2023-02-13T15:47:28.820Z,35.06
2023-02-13T15:49:58.754Z,35.22
2023-02-13T15:52:33.284Z,36.41
2023-02-13T15:55:03.441Z,38.33
2023-02-13T15:57:32.569Z,40.07
2023-02-13T16:00:02.400Z,40.85
2023-02-13T16:02:45.767Z,41.79
2023-02-13T16:05:17.172Z,42.25
2023-02-13T16:07:52.750Z,42.99
2023-02-13T16:10:29.298Z,43.26
2023-02-13T16:12:59.526Z,43.49
2023-02-13T16:15:31.729Z,43.48
2023-02-13T16:18:00.611Z,43.90
2023-02-13T16:20:30.304Z,43.94
2023-02-13T16:23:02.813Z,43.97
2023-02-13T16:25:36.564Z,44.07
2023-02-13T16:28:16.407Z,44.07
2023-02-13T16:30:46.582Z,44.73
2023-02-13T16:33:28.848Z,44.27
2023-02-13T16:35:58.585Z,45.15
2023-02-13T16:38:33.597Z,45.07
2023-02-13T16:41:06.032Z,45.12
2023-02-13T16:43:36.284Z,45.49
2023-02-13T16:46:21.967Z,45.48
2023-02-13T16:49:05.844Z,45.36
2023-02-13T16:51:39.088Z,45.82
2023-02-13T16:54:19.424Z,45.30
2023-02-13T16:56:52.011Z,45.27
2023-02-13T16:59:29.621Z,45.58
2023-02-13T17:02:15.727Z,45.66
2023-02-13T17:04:46.315Z,45.68
2023-02-13T17:07:17.351Z,45.98
2023-02-13T17:09:45.870Z,46.15
2023-02-13T17:12:19.539Z,46.26
2023-02-13T17:14:48.190Z,46.91
2023-02-13T17:17:19.065Z,47.32
2023-02-13T17:19:48.162Z,48.08
2023-02-13T17:22:24.619Z,48.61
2023-02-13T17:24:53.204Z,48.45
2023-02-13T17:27:24.057Z,49.04
2023-02-13T17:29:52.541Z,49.54
2023-02-13T17:32:24.657Z,48.98
2023-02-13T17:34:53.484Z,49.47
2023-02-13T17:37:24.280Z,50.14
2023-02-13T17:39:53.801Z,50.09
2023-02-13T17:42:26.374Z,50.99
2023-02-13T17:44:55.938Z,52.48
2023-02-13T17:47:25.446Z,52.80
2023-02-13T17:50:01.908Z,52.94
2023-02-13T17:52:32.268Z,53.71
2023-02-13T17:55:00.792Z,53.87
2023-02-13T17:57:30.768Z,53.93
2023-02-13T18:00:03.608Z,54.05
2023-02-13T18:02:42.700Z,53.77
2023-02-13T18:05:11.457Z,54.34
2023-02-13T18:07:41.626Z,54.74
2023-02-13T18:10:13.264Z,55.11
2023-02-13T18:12:43.962Z,55.32
2023-02-13T18:15:13.145Z,55.67
2023-02-13T18:17:42.022Z,55.69
2023-02-13T18:20:14.890Z,55.63
2023-02-13T18:22:43.224Z,55.55
2023-02-13T18:25:13.423Z,55.72
2023-02-13T18:27:43.261Z,55.77
2023-02-13T18:30:14.493Z,55.84
2023-02-13T18:32:43.194Z,56.13
2023-02-13T18:35:11.680Z,56.55
2023-02-13T18:37:41.114Z,56.83
2023-02-13T18:40:10.693Z,56.96
2023-02-13T18:42:40.011Z,57.25
2023-02-13T18:45:11.263Z,56.86
2023-02-13T18:47:39.747Z,56.80
2023-02-13T18:50:10.052Z,56.88
2023-02-13T18:52:38.677Z,56.83
2023-02-13T18:55:07.850Z,56.84
2023-02-13T18:57:36.593Z,57.66
2023-02-13T19:00:07.322Z,57.74
2023-02-13T19:02:37.211Z,56.79
2023-02-13T19:05:06.483Z,57.34
2023-02-13T19:07:34.972Z,56.81
2023-02-13T19:10:03.617Z,56.82
2023-02-13T19:12:32.068Z,57.49
2023-02-13T19:15:00.476Z,56.52
2023-02-13T19:17:28.856Z,56.78
2023-02-13T19:19:58.688Z,56.78
2023-02-13T19:22:27.380Z,56.33
2023-02-13T19:24:55.904Z,56.34
2023-02-13T19:27:24.385Z,57.57
2023-02-13T19:29:52.777Z,57.56
2023-02-13T19:32:21.234Z,57.75
2023-02-13T19:34:49.669Z,57.80
2023-02-13T19:37:19.423Z,56.88
2023-02-13T19:39:47.725Z,56.88
2023-02-13T19:42:16.116Z,57.29
2023-02-13T19:44:44.540Z,58.55
2023-02-13T19:47:13.042Z,59.23
2023-02-13T19:49:41.372Z,58.97
2023-02-13T19:52:09.744Z,59.71
2023-02-13T19:54:40.234Z,59.91
2023-02-13T19:57:08.844Z,60.07
2023-02-13T19:59:37.224Z,59.69
2023-02-13T20:02:05.615Z,60.24
2023-02-13T20:04:36.854Z,59.62
2023-02-13T20:07:06.232Z,58.42
2023-02-13T20:09:37.949Z,59.12
2023-02-13T20:12:08.789Z,59.50
2023-02-13T20:14:37.242Z,59.44
2023-02-13T20:17:06.034Z,56.80
2023-02-13T20:19:34.414Z,58.55
2023-02-13T20:22:02.980Z,59.29
2023-02-13T20:24:33.171Z,59.69
2023-02-13T20:27:01.584Z,60.00
2023-02-13T20:29:31.585Z,59.80
2023-02-13T20:32:00.204Z,59.82
2023-02-13T20:34:31.603Z,60.15
2023-02-13T20:37:06.092Z,59.95
2023-02-13T20:39:34.588Z,60.48
2023-02-13T20:42:03.168Z,60.54
2023-02-13T20:44:33.205Z,60.74
2023-02-13T20:47:01.618Z,60.88
2023-02-13T20:49:30.642Z,61.29
2023-02-13T20:51:59.132Z,61.29
2023-02-13T20:54:27.569Z,61.53
2023-02-13T20:56:56.068Z,61.25
2023-02-13T20:59:24.448Z,61.70
2023-02-13T21:01:54.409Z,61.87
2023-02-13T21:04:22.865Z,61.94
2023-02-13T21:06:51.341Z,62.29
2023-02-13T21:09:20.346Z,62.90
2023-02-13T21:11:48.924Z,62.52
2023-02-13T21:14:17.327Z,62.93
2023-02-13T21:16:45.873Z,62.91
2023-02-13T21:19:19.094Z,62.87
2023-02-13T21:21:48.262Z,63.19
2023-02-13T21:24:18.768Z,63.51
2023-02-13T21:26:48.132Z,63.45
2023-02-13T21:29:16.591Z,63.42
2023-02-13T21:31:47.934Z,63.77
2023-02-13T21:34:18.853Z,63.89
2023-02-13T21:36:47.372Z,64.18
2023-02-13T21:39:15.948Z,64.03
2023-02-13T21:41:45.907Z,63.58
2023-02-13T21:44:15.281Z,63.25
2023-02-13T21:46:45.068Z,63.00
2023-02-13T21:49:15.165Z,62.66
2023-02-13T21:51:45.509Z,62.92
2023-02-13T21:54:14.282Z,63.33
2023-02-13T21:56:44.276Z,63.48
2023-02-13T21:59:15.915Z,63.79
2023-02-13T22:01:50.299Z,64.48
2023-02-13T22:04:19.527Z,64.43
2023-02-13T22:06:52.222Z,64.57
2023-02-13T22:09:22.772Z,64.41
2023-02-13T22:11:52.069Z,64.76
2023-02-13T22:14:20.566Z,64.62
2023-02-13T22:16:51.374Z,64.93
2023-02-13T22:19:20.399Z,65.04
2023-02-13T22:21:50.479Z,65.23
2023-02-13T22:24:18.932Z,65.00
2023-02-13T22:26:47.290Z,65.15
2023-02-13T22:29:18.616Z,65.29
2023-02-13T22:31:48.191Z,65.21
2023-02-13T22:34:17.002Z,65.25
2023-02-13T22:36:46.015Z,65.56
2023-02-13T22:39:16.590Z,65.50
2023-02-13T22:41:45.965Z,65.66
2023-02-13T22:44:14.446Z,65.65
2023-02-13T22:46:43.018Z,66.12
2023-02-13T22:49:11.403Z,65.76
2023-02-13T22:51:39.771Z,65.74
2023-02-13T22:54:08.204Z,65.58
2023-02-13T22:56:38.037Z,65.46
2023-02-13T22:59:06.557Z,65.52
2023-02-13T23:01:35.619Z,66.04
2023-02-13T23:04:04.063Z,65.54
2023-02-13T23:06:32.460Z,65.99
2023-02-13T23:09:02.054Z,65.77
2023-02-13T23:11:47.650Z,66.17
2023-02-13T23:14:18.478Z,66.17
2023-02-13T23:17:04.561Z,65.57
2023-02-13T23:19:33.364Z,65.56
2023-02-13T23:22:01.938Z,66.03
2023-02-13T23:24:31.937Z,65.58
2023-02-13T23:27:01.192Z,65.29
2023-02-13T23:29:31.353Z,65.81
2023-02-13T23:31:59.921Z,66.43
2023-02-13T23:34:28.414Z,65.89
2023-02-13T23:36:56.928Z,66.04
2023-02-13T23:39:25.496Z,65.81
2023-02-13T23:41:53.934Z,65.93
2023-02-13T23:44:22.369Z,65.75
2023-02-13T23:46:52.154Z,66.34
2023-02-13T23:49:21.105Z,66.55
2023-02-13T23:51:49.900Z,66.71
2023-02-13T23:54:19.767Z,67.23
2023-02-13T23:56:50.108Z,67.42
2023-02-13T23:59:19.397Z,67.28
